createdAt,value
2023-06-19T00:01:03.767Z,1.67
2023-06-19T00:03:30.222Z,1.58
2023-06-19T00:05:56.621Z,1.60
2023-06-19T00:08:23.018Z,1.60
2023-06-19T00:10:49.413Z,1.50
2023-06-19T00:13:15.846Z,1.40
2023-06-19T00:15:42.281Z,1.60
2023-06-19T00:18:08.820Z,1.63
2023-06-19T00:20:37.213Z,1.60
2023-06-19T00:23:03.708Z,1.60
2023-06-19T00:25:30.098Z,1.70
2023-06-19T00:27:56.643Z,1.70
2023-06-19T00:30:23.301Z,1.50
2023-06-19T00:32:50.990Z,1.80
2023-06-19T00:35:19.273Z,1.60
2023-06-19T00:37:45.761Z,1.90
2023-06-19T00:40:25.687Z,1.75
2023-06-19T00:42:52.211Z,1.77
2023-06-19T00:45:18.581Z,1.90
2023-06-19T00:47:45.956Z,1.70
2023-06-19T00:50:12.913Z,1.65
2023-06-19T00:52:39.895Z,1.73
2023-06-19T00:55:08.585Z,1.85
2023-06-19T00:57:35.085Z,1.60
2023-06-19T01:00:01.528Z,1.67
2023-06-19T01:02:28.243Z,1.58
2023-06-19T01:04:57.295Z,1.63
2023-06-19T01:07:34.283Z,1.80
2023-06-19T01:10:06.028Z,1.48
2023-06-19T01:12:38.542Z,1.88
2023-06-19T01:15:08.674Z,1.67
2023-06-19T01:17:36.559Z,1.75
2023-06-19T01:20:11.933Z,1.50
2023-06-19T01:22:38.438Z,1.48
2023-06-19T01:25:08.234Z,1.83
2023-06-19T01:27:34.777Z,1.58
2023-06-19T01:30:03.580Z,1.70
2023-06-19T01:32:51.860Z,1.52
2023-06-19T01:35:22.545Z,1.73
2023-06-19T01:37:50.789Z,1.70
2023-06-19T01:40:18.748Z,2.05
2023-06-19T01:42:45.695Z,1.73
2023-06-19T01:45:12.296Z,1.77
2023-06-19T01:47:38.808Z,1.70
2023-06-19T01:50:06.243Z,1.90
2023-06-19T01:52:32.698Z,1.98
2023-06-19T01:54:59.213Z,1.70
2023-06-19T01:57:25.701Z,1.80
2023-06-19T01:59:52.099Z,1.77
2023-06-19T02:02:18.526Z,1.83
2023-06-19T02:04:44.988Z,1.42
2023-06-19T02:07:11.623Z,1.58
2023-06-19T02:09:39.075Z,1.85
2023-06-19T02:12:05.829Z,2.03
2023-06-19T02:14:32.222Z,1.75
2023-06-19T02:16:58.600Z,1.77
2023-06-19T02:19:25.012Z,1.60
2023-06-19T02:21:51.416Z,1.90
2023-06-19T02:24:17.901Z,1.70
2023-06-19T02:26:45.087Z,1.60
2023-06-19T02:29:11.517Z,1.85
2023-06-19T02:31:37.940Z,1.65
2023-06-19T02:34:04.295Z,1.60
2023-06-19T02:36:31.467Z,1.85
2023-06-19T02:38:57.859Z,1.42
2023-06-19T02:41:24.220Z,1.70
2023-06-19T02:43:50.874Z,2.13
2023-06-19T02:46:17.343Z,1.90
2023-06-19T02:48:43.834Z,1.70
2023-06-19T02:51:10.253Z,1.88
2023-06-19T02:53:36.730Z,1.75
2023-06-19T02:56:03.433Z,1.85
2023-06-19T02:58:29.840Z,2.30
2023-06-19T03:00:56.309Z,1.90
2023-06-19T03:03:24.095Z,1.65
2023-06-19T03:05:50.668Z,1.70
2023-06-19T03:08:17.054Z,2.10
2023-06-19T03:10:43.477Z,1.80
2023-06-19T03:13:09.910Z,1.90
2023-06-19T03:15:36.322Z,1.80
2023-06-19T03:18:05.534Z,2.20
2023-06-19T03:20:31.985Z,1.70
2023-06-19T03:22:58.450Z,1.73
2023-06-19T03:25:24.989Z,1.70
2023-06-19T03:27:51.491Z,1.90
2023-06-19T03:30:19.740Z,1.70
2023-06-19T03:32:46.347Z,2.20
2023-06-19T03:35:12.920Z,1.88
2023-06-19T03:37:39.298Z,1.85
2023-06-19T03:40:06.655Z,1.63
2023-06-19T03:42:33.305Z,2.35
2023-06-19T03:44:59.847Z,2.03
2023-06-19T03:47:26.297Z,2.13
2023-06-19T03:49:54.663Z,2.13
2023-06-19T03:52:21.750Z,1.97
2023-06-19T03:54:48.443Z,1.90
2023-06-19T03:57:14.945Z,2.30
2023-06-19T03:59:41.346Z,1.90
2023-06-19T04:02:07.789Z,1.90
2023-06-19T04:04:34.176Z,1.88
2023-06-19T04:07:00.572Z,1.85
2023-06-19T04:09:27.007Z,1.75
2023-06-19T04:11:56.168Z,1.58
2023-06-19T04:14:24.550Z,2.05
2023-06-19T04:16:50.920Z,2.08
2023-06-19T04:19:17.396Z,1.48
2023-06-19T04:21:43.786Z,2.00
2023-06-19T04:24:10.321Z,1.85
2023-06-19T04:26:37.841Z,1.73
2023-06-19T04:29:04.741Z,1.83
2023-06-19T04:31:31.836Z,1.60
2023-06-19T04:33:58.291Z,1.60
2023-06-19T04:36:24.915Z,1.50
2023-06-19T04:38:53.920Z,1.90
2023-06-19T04:41:20.357Z,1.57
2023-06-19T04:43:46.817Z,1.48
2023-06-19T04:46:13.325Z,1.75
2023-06-19T04:48:40.651Z,1.52
2023-06-19T04:51:07.097Z,1.70
2023-06-19T04:53:33.489Z,1.77
2023-06-19T04:56:02.467Z,1.52
2023-06-19T04:58:29.488Z,1.65
2023-06-19T05:00:56.021Z,1.80
2023-06-19T05:03:23.196Z,2.10
2023-06-19T05:05:49.769Z,1.75
2023-06-19T05:08:16.174Z,1.52
2023-06-19T05:10:44.318Z,1.90
2023-06-19T05:13:12.713Z,1.63
2023-06-19T05:15:39.131Z,1.90
2023-06-19T05:18:05.937Z,1.52
2023-06-19T05:20:32.449Z,1.73
2023-06-19T05:22:58.906Z,1.73
2023-06-19T05:25:25.366Z,1.25
2023-06-19T05:27:52.062Z,1.60
2023-06-19T05:30:18.616Z,2.08
2023-06-19T05:32:45.173Z,2.00
2023-06-19T05:35:14.542Z,1.60
2023-06-19T05:37:44.604Z,1.58
2023-06-19T05:40:11.561Z,1.85
2023-06-19T05:42:38.134Z,1.73
2023-06-19T05:45:05.467Z,1.83
2023-06-19T05:47:32.174Z,2.15
2023-06-19T05:49:58.729Z,1.83
2023-06-19T05:52:25.456Z,1.65
2023-06-19T05:54:52.238Z,2.17
2023-06-19T05:57:21.841Z,1.63
2023-06-19T05:59:48.952Z,2.38
2023-06-19T06:02:16.142Z,1.85
2023-06-19T06:04:43.513Z,2.08
2023-06-19T06:07:10.176Z,2.00
2023-06-19T06:09:36.820Z,1.80
2023-06-19T06:12:03.594Z,2.10
2023-06-19T06:14:29.978Z,2.17
2023-06-19T06:16:56.505Z,2.20
2023-06-19T06:19:26.988Z,1.77
2023-06-19T06:21:53.381Z,1.92
2023-06-19T06:24:19.840Z,2.00
2023-06-19T06:26:46.274Z,1.77
2023-06-19T06:29:12.633Z,2.20
2023-06-19T06:31:39.964Z,1.92
2023-06-19T06:34:06.344Z,2.05
2023-06-19T06:36:36.915Z,2.42
2023-06-19T06:39:04.342Z,1.95
2023-06-19T06:41:30.784Z,1.83
2023-06-19T06:43:57.245Z,1.98
2023-06-19T06:46:23.682Z,2.20
2023-06-19T06:48:51.050Z,2.60
2023-06-19T06:51:17.443Z,1.85
2023-06-19T06:53:43.840Z,1.60
2023-06-19T06:56:10.282Z,2.10
2023-06-19T06:58:37.222Z,2.08
2023-06-19T07:01:03.728Z,1.85
2023-06-19T07:03:32.669Z,2.00
2023-06-19T07:05:59.238Z,2.00
2023-06-19T07:08:28.642Z,1.98
2023-06-19T07:10:55.057Z,1.90
2023-06-19T07:13:21.581Z,2.17
2023-06-19T07:15:47.982Z,1.80
2023-06-19T07:18:14.401Z,1.98
2023-06-19T07:20:40.855Z,2.20
2023-06-19T07:23:07.527Z,2.28
2023-06-19T07:25:34.870Z,2.08
2023-06-19T07:28:02.228Z,2.17
2023-06-19T07:30:28.747Z,2.30
2023-06-19T07:32:55.183Z,2.13
2023-06-19T07:35:21.704Z,1.95
2023-06-19T07:37:48.306Z,2.20
2023-06-19T07:40:14.756Z,1.90
2023-06-19T07:42:44.160Z,1.80
2023-06-19T07:47:38.061Z,2.03
2023-06-19T07:50:04.908Z,2.20
2023-06-19T07:52:31.380Z,2.00
2023-06-19T07:54:58.961Z,2.58
2023-06-19T07:57:26.647Z,2.30
2023-06-19T07:59:54.929Z,2.17
2023-06-19T08:02:21.413Z,2.05
2023-06-19T08:04:48.148Z,2.33
2023-06-19T08:07:14.636Z,2.03
2023-06-19T08:09:41.094Z,2.67
2023-06-19T08:12:07.868Z,1.75
2023-06-19T08:14:34.255Z,2.17
2023-06-19T08:17:00.824Z,2.20
2023-06-19T08:19:27.321Z,2.08
2023-06-19T08:21:53.725Z,1.90
2023-06-19T08:24:20.143Z,2.08
2023-06-19T08:26:46.612Z,2.20
2023-06-19T08:29:13.040Z,1.80
2023-06-19T08:31:39.432Z,1.92
2023-06-19T08:34:09.030Z,2.08
2023-06-19T08:36:35.470Z,2.08
2023-06-19T08:39:01.854Z,1.63
2023-06-19T08:41:28.310Z,2.33
2023-06-19T08:43:55.741Z,2.50
2023-06-19T08:46:22.158Z,2.40
2023-06-19T08:48:48.924Z,2.58
2023-06-19T08:51:15.354Z,2.30
2023-06-19T08:53:52.261Z,2.30
2023-06-19T08:56:18.829Z,2.35
2023-06-19T08:58:45.323Z,2.30
2023-06-19T09:01:11.748Z,2.60
2023-06-19T09:03:38.220Z,2.22
2023-06-19T09:06:07.274Z,2.42
2023-06-19T09:08:33.989Z,2.42
2023-06-19T09:11:01.688Z,2.33
2023-06-19T09:13:31.677Z,2.05
2023-06-19T09:16:09.520Z,2.03
2023-06-19T09:18:46.404Z,2.20
2023-06-19T09:21:19.063Z,2.20
2023-06-19T09:23:46.793Z,2.10
2023-06-19T09:26:16.714Z,1.75
2023-06-19T09:31:10.620Z,1.88
2023-06-19T09:33:38.307Z,1.90
2023-06-19T09:36:06.577Z,2.10
2023-06-19T09:38:42.016Z,2.17
2023-06-19T09:41:08.756Z,1.92
2023-06-19T09:43:40.760Z,2.47
2023-06-19T09:46:08.261Z,2.47
2023-06-19T09:48:36.038Z,2.30
2023-06-19T09:51:32.055Z,2.40
2023-06-19T09:54:04.018Z,1.73
2023-06-19T09:56:30.706Z,2.00
2023-06-19T09:59:01.160Z,2.42
2023-06-19T10:01:32.980Z,2.28
2023-06-19T10:04:05.552Z,2.15
2023-06-19T10:06:32.133Z,2.20
2023-06-19T10:09:07.811Z,2.13
2023-06-19T10:11:53.637Z,2.17
2023-06-19T10:14:24.095Z,2.25
2023-06-19T10:16:50.693Z,1.95
2023-06-19T10:19:23.023Z,2.05
2023-06-19T10:21:51.752Z,2.00
2023-06-19T10:24:20.709Z,1.88
2023-06-19T10:27:02.181Z,2.42
2023-06-19T10:29:39.690Z,2.20
2023-06-19T10:32:06.878Z,2.15
2023-06-19T10:34:37.118Z,2.00
2023-06-19T10:37:03.885Z,2.63
2023-06-19T10:39:30.308Z,1.90
2023-06-19T10:41:56.786Z,1.92
2023-06-19T10:44:26.387Z,2.63
2023-06-19T10:46:53.830Z,2.33
2023-06-19T10:49:21.913Z,2.17
2023-06-19T10:51:49.664Z,2.22
2023-06-19T10:54:16.136Z,2.53
2023-06-19T10:56:44.418Z,2.38
2023-06-19T10:59:14.993Z,2.45
2023-06-19T11:01:51.627Z,2.17
2023-06-19T11:04:18.158Z,2.33
2023-06-19T11:06:46.927Z,2.45
2023-06-19T11:09:14.119Z,2.17
2023-06-19T11:11:43.715Z,2.60
2023-06-19T11:14:13.384Z,2.33
2023-06-19T11:16:45.880Z,2.42
2023-06-19T11:19:17.893Z,2.40
2023-06-19T11:21:48.098Z,2.35
2023-06-19T11:24:15.740Z,3.03
2023-06-19T11:26:50.232Z,2.42
2023-06-19T11:29:33.582Z,2.20
2023-06-19T11:32:18.603Z,2.40
2023-06-19T11:34:45.723Z,2.58
2023-06-19T11:37:16.815Z,2.58
2023-06-19T11:39:47.384Z,2.38
2023-06-19T11:42:15.094Z,2.28
2023-06-19T11:44:55.771Z,2.20
2023-06-19T11:47:22.420Z,2.20
2023-06-19T11:49:50.516Z,1.83
2023-06-19T11:52:17.500Z,1.90
2023-06-19T11:54:44.430Z,2.03
2023-06-19T11:57:14.352Z,1.92
2023-06-19T11:59:42.021Z,2.30
2023-06-19T12:02:09.943Z,2.08
2023-06-19T12:04:37.174Z,1.75
2023-06-19T12:07:05.116Z,1.92
2023-06-19T12:09:32.997Z,1.92
2023-06-19T12:11:59.636Z,2.00
2023-06-19T12:14:26.087Z,1.90
2023-06-19T12:16:53.001Z,1.92
2023-06-19T12:19:21.182Z,2.20
2023-06-19T12:21:47.829Z,1.65
2023-06-19T12:24:14.355Z,1.90
2023-06-19T12:26:40.914Z,1.95
2023-06-19T12:29:08.106Z,2.25
2023-06-19T12:31:39.440Z,2.03
2023-06-19T12:36:38.006Z,1.42
2023-06-19T12:39:07.128Z,1.45
2023-06-19T12:41:33.497Z,1.40
2023-06-19T12:43:59.899Z,1.30
2023-06-19T12:46:26.307Z,1.35
2023-06-19T12:48:52.823Z,1.42
2023-06-19T12:51:19.251Z,1.40
2023-06-19T12:53:45.792Z,1.45
2023-06-19T12:56:14.264Z,1.67
2023-06-19T12:58:40.930Z,1.33
2023-06-19T13:01:07.500Z,1.45
2023-06-19T13:03:33.980Z,1.58
2023-06-19T13:06:00.544Z,1.80
2023-06-19T13:08:26.949Z,1.30
2023-06-19T13:10:53.345Z,1.50
2023-06-19T13:13:19.739Z,1.25
2023-06-19T13:15:46.256Z,1.20
2023-06-19T13:18:12.902Z,0.80
2023-06-19T13:20:39.565Z,0.90
2023-06-19T13:23:07.108Z,0.82
2023-06-19T13:25:34.044Z,0.70
2023-06-19T13:28:00.465Z,0.80
2023-06-19T13:30:27.152Z,0.60
2023-06-19T13:32:53.662Z,0.68
2023-06-19T13:35:20.099Z,0.73
2023-06-19T13:37:46.479Z,0.85
2023-06-19T13:40:13.190Z,0.85
2023-06-19T13:42:39.882Z,0.93
2023-06-19T13:45:07.132Z,1.00
2023-06-19T13:47:33.617Z,0.82
2023-06-19T13:50:00.206Z,0.80
2023-06-19T13:52:26.651Z,1.10
2023-06-19T13:54:55.499Z,1.08
2023-06-19T13:57:22.432Z,1.10
2023-06-19T13:59:49.914Z,1.00
2023-06-19T14:02:16.427Z,1.40
2023-06-19T14:04:42.870Z,1.00
2023-06-19T14:07:09.534Z,1.08
2023-06-19T14:09:36.114Z,1.20
2023-06-19T14:12:02.886Z,1.73
2023-06-19T14:14:29.303Z,1.30
2023-06-19T14:16:55.782Z,1.20
2023-06-19T14:19:22.394Z,1.38
2023-06-19T14:21:48.774Z,1.17
2023-06-19T14:24:15.261Z,1.20
2023-06-19T14:26:41.751Z,1.25
2023-06-19T14:29:09.222Z,1.60
2023-06-19T14:31:35.775Z,1.45
2023-06-19T14:34:02.239Z,1.38
2023-06-19T14:36:28.769Z,1.50
2023-06-19T14:38:55.559Z,1.50
2023-06-19T14:41:21.995Z,1.27
2023-06-19T14:43:48.554Z,1.42
2023-06-19T14:46:26.021Z,1.27
2023-06-19T14:49:02.005Z,1.50
2023-06-19T14:51:28.536Z,1.35
2023-06-19T14:53:54.991Z,1.48
2023-06-19T14:56:21.403Z,1.30
2023-06-19T14:58:48.021Z,1.17
2023-06-19T15:01:14.809Z,1.40
2023-06-19T15:03:43.083Z,1.42
2023-06-19T15:06:09.565Z,1.30
2023-06-19T15:08:39.350Z,1.52
2023-06-19T15:11:06.292Z,1.55
2023-06-19T15:13:33.137Z,1.23
2023-06-19T15:15:59.589Z,1.20
2023-06-19T15:18:27.162Z,1.40
2023-06-19T15:20:54.164Z,1.23
2023-06-19T15:23:20.687Z,1.45
2023-06-19T15:25:49.066Z,1.10
2023-06-19T15:28:15.470Z,1.40
2023-06-19T15:30:41.951Z,1.58
2023-06-19T15:33:08.361Z,1.13
2023-06-19T15:35:34.892Z,1.02
2023-06-19T15:38:01.324Z,1.40
2023-06-19T15:40:28.479Z,1.30
2023-06-19T15:42:55.470Z,1.30
2023-06-19T15:45:21.875Z,1.25
2023-06-19T15:47:48.304Z,1.02
2023-06-19T15:50:14.841Z,1.10
2023-06-19T15:52:41.318Z,1.17
2023-06-19T15:55:08.023Z,1.02
2023-06-19T15:57:34.472Z,1.15
2023-06-19T16:00:00.886Z,1.15
2023-06-19T16:02:27.701Z,0.80
2023-06-19T16:04:54.150Z,0.90
2023-06-19T16:07:20.535Z,0.90
2023-06-19T16:09:55.053Z,1.00
2023-06-19T16:12:23.321Z,0.90
2023-06-19T16:14:49.979Z,0.90
2023-06-19T16:17:16.399Z,0.85
2023-06-19T16:19:42.842Z,0.85
2023-06-19T16:22:09.370Z,1.08
2023-06-19T16:24:35.826Z,0.82
2023-06-19T16:27:02.271Z,1.00
2023-06-19T16:29:28.668Z,0.90
2023-06-19T16:32:08.240Z,1.02
2023-06-19T16:34:36.455Z,0.82
2023-06-19T16:37:02.939Z,0.80
2023-06-19T16:39:29.365Z,0.73
2023-06-19T16:41:55.824Z,0.77
2023-06-19T16:44:22.228Z,0.90
2023-06-19T16:46:49.808Z,0.95
2023-06-19T16:49:18.228Z,0.90
2023-06-19T16:51:45.142Z,0.93
2023-06-19T16:54:11.692Z,0.82
2023-06-19T16:56:38.867Z,0.60
2023-06-19T16:59:08.069Z,0.68
2023-06-19T17:01:35.618Z,0.60
2023-06-19T17:04:02.370Z,0.60
2023-06-19T17:06:28.998Z,0.55
2023-06-19T17:08:55.602Z,0.40
2023-06-19T17:11:23.239Z,0.60
2023-06-19T17:13:49.638Z,0.70
2023-06-19T17:16:16.174Z,0.82
2023-06-19T17:18:42.799Z,0.60
2023-06-19T17:21:09.226Z,0.57
2023-06-19T17:23:36.072Z,0.60
2023-06-19T17:26:02.570Z,0.60
2023-06-19T17:28:29.138Z,0.70
2023-06-19T17:30:55.536Z,0.60
2023-06-19T17:33:21.903Z,0.50
2023-06-19T17:35:48.369Z,0.60
2023-06-19T17:38:14.831Z,0.60
2023-06-19T17:40:41.925Z,0.55
2023-06-19T17:43:08.798Z,0.50
2023-06-19T17:45:35.232Z,0.60
2023-06-19T17:48:03.616Z,0.50
2023-06-19T17:50:30.391Z,0.60
2023-06-19T17:52:56.848Z,0.50
2023-06-19T17:55:23.262Z,0.50
2023-06-19T17:57:49.699Z,0.68
2023-06-19T18:00:16.400Z,0.50
2023-06-19T18:02:43.035Z,0.55
2023-06-19T18:05:10.001Z,0.47
2023-06-19T18:07:36.572Z,0.55
2023-06-19T18:10:03.259Z,0.93
2023-06-19T18:12:29.625Z,0.60
2023-06-19T18:14:56.032Z,0.57
2023-06-19T18:17:22.523Z,0.45
2023-06-19T18:19:49.107Z,0.65
2023-06-19T18:22:15.523Z,0.40
2023-06-19T18:24:43.007Z,0.60
2023-06-19T18:27:09.459Z,0.80
2023-06-19T18:29:35.937Z,0.70
2023-06-19T18:32:02.417Z,0.75
2023-06-19T18:34:28.833Z,0.80
2023-06-19T18:36:55.233Z,0.65
2023-06-19T18:39:21.650Z,0.80
2023-06-19T18:41:48.178Z,0.55
2023-06-19T18:44:14.701Z,0.50
2023-06-19T18:46:41.809Z,0.60
2023-06-19T18:49:08.247Z,0.55
2023-06-19T18:51:34.637Z,0.70
2023-06-19T18:54:01.036Z,0.60
2023-06-19T18:56:27.535Z,0.68
2023-06-19T18:58:54.013Z,0.55
2023-06-19T19:01:20.492Z,0.77
2023-06-19T19:03:47.025Z,0.60
2023-06-19T19:06:15.389Z,0.50
2023-06-19T19:11:09.417Z,0.73
2023-06-19T19:13:35.835Z,0.82
2023-06-19T19:16:02.318Z,0.55
2023-06-19T19:18:29.263Z,0.90
2023-06-19T19:20:55.664Z,0.60
2023-06-19T19:23:22.117Z,0.70
2023-06-19T19:25:48.721Z,0.70
2023-06-19T19:28:15.338Z,0.60
2023-06-19T19:30:45.673Z,0.85
2023-06-19T19:33:12.349Z,0.80
2023-06-19T19:35:38.852Z,0.70
2023-06-19T19:38:05.246Z,0.65
2023-06-19T19:40:31.649Z,0.70
2023-06-19T19:42:58.081Z,0.88
2023-06-19T19:45:24.525Z,0.80
2023-06-19T19:47:50.963Z,0.60
2023-06-19T19:50:17.423Z,0.70
2023-06-19T19:52:43.941Z,0.70
2023-06-19T19:55:12.204Z,0.65
2023-06-19T19:57:39.001Z,0.80
2023-06-19T20:00:06.621Z,0.80
2023-06-19T20:02:33.133Z,0.80
2023-06-19T20:04:59.568Z,0.80
2023-06-19T20:07:25.967Z,0.60
2023-06-19T20:09:52.367Z,0.60
2023-06-19T20:12:21.834Z,0.77
2023-06-19T20:14:48.982Z,0.70
2023-06-19T20:17:15.710Z,0.80
2023-06-19T20:19:42.256Z,0.70
2023-06-19T20:22:08.871Z,0.50
2023-06-19T20:24:35.305Z,0.80
2023-06-19T20:27:01.773Z,0.73
2023-06-19T20:29:28.195Z,0.85
2023-06-19T20:31:54.567Z,0.85
2023-06-19T20:34:21.054Z,0.95
2023-06-19T20:36:47.565Z,0.70
2023-06-19T20:39:14.004Z,1.00
2023-06-19T20:41:40.429Z,0.90
2023-06-19T20:44:06.821Z,0.77
2023-06-19T20:46:33.274Z,0.70
2023-06-19T20:48:59.685Z,0.85
2023-06-19T20:51:26.143Z,0.88
2023-06-19T20:53:52.611Z,0.80
2023-06-19T20:56:19.021Z,0.90
2023-06-19T20:58:45.417Z,1.10
2023-06-19T21:01:11.978Z,1.10
2023-06-19T21:03:38.466Z,1.20
2023-06-19T21:06:04.984Z,1.00
2023-06-19T21:08:31.868Z,0.90
2023-06-19T21:10:58.712Z,0.80
2023-06-19T21:13:25.340Z,0.95
2023-06-19T21:15:51.791Z,1.00
2023-06-19T21:18:19.228Z,0.90
2023-06-19T21:20:45.781Z,0.98
2023-06-19T21:23:12.290Z,0.95
2023-06-19T21:25:39.151Z,0.77
2023-06-19T21:28:05.533Z,1.10
2023-06-19T21:30:32.684Z,0.90
2023-06-19T21:32:59.179Z,0.95
2023-06-19T21:35:26.643Z,0.85
2023-06-19T21:37:53.039Z,0.93
2023-06-19T21:40:19.495Z,1.00
2023-06-19T21:42:45.958Z,0.93
2023-06-19T21:45:12.371Z,0.90
2023-06-19T21:47:39.289Z,1.00
2023-06-19T21:50:06.159Z,1.17
2023-06-19T21:52:32.677Z,1.30
2023-06-19T21:54:59.170Z,1.10
2023-06-19T21:57:25.539Z,1.08
2023-06-19T21:59:51.914Z,1.00
2023-06-19T22:02:18.549Z,1.08
2023-06-19T22:04:45.010Z,1.48
2023-06-19T22:07:11.649Z,1.00
2023-06-19T22:09:38.654Z,1.10
2023-06-19T22:12:05.438Z,1.00
2023-06-19T22:14:38.629Z,1.10
2023-06-19T22:17:05.950Z,1.20
2023-06-19T22:19:32.359Z,1.45
2023-06-19T22:21:58.789Z,0.80
2023-06-19T22:24:25.428Z,1.10
2023-06-19T22:26:52.014Z,1.38
2023-06-19T22:29:18.384Z,1.20
2023-06-19T22:31:44.782Z,1.33
2023-06-19T22:34:11.193Z,1.20
2023-06-19T22:36:37.564Z,1.20
2023-06-19T22:39:04.009Z,1.10
2023-06-19T22:41:30.430Z,1.20
2023-06-19T22:43:56.885Z,1.30
2023-06-19T22:46:23.417Z,1.60
2023-06-19T22:48:53.346Z,1.35
2023-06-19T22:53:46.062Z,1.30
2023-06-19T22:56:13.129Z,1.20
2023-06-19T22:58:40.971Z,1.20
2023-06-19T23:01:10.692Z,1.40
2023-06-19T23:06:08.709Z,1.50
2023-06-19T23:08:41.510Z,1.13
2023-06-19T23:11:11.453Z,1.10
2023-06-19T23:13:39.241Z,1.20
2023-06-19T23:16:06.445Z,1.20
2023-06-19T23:18:32.916Z,1.17
2023-06-19T23:20:59.318Z,1.30
2023-06-19T23:23:25.742Z,1.10
2023-06-19T23:25:52.133Z,1.25
2023-06-19T23:28:18.657Z,1.35
2023-06-19T23:30:45.042Z,1.15
2023-06-19T23:33:11.467Z,1.48
2023-06-19T23:35:38.043Z,1.20
2023-06-19T23:38:04.475Z,1.02
2023-06-19T23:40:30.935Z,1.20
2023-06-19T23:42:57.304Z,1.30
2023-06-19T23:45:27.469Z,1.52
2023-06-19T23:47:55.300Z,1.50
2023-06-19T23:50:21.761Z,1.40
2023-06-19T23:52:48.207Z,1.40
2023-06-19T23:55:14.661Z,1.25
2023-06-19T23:57:41.455Z,1.23
